Time;durP1;ratioP1;P1;durP2;ratioP2;P2;SDS_P1;SDS_P2;PMS_P1;PMS_P2;Temp;Humidity;BMP_temperature;BMP_pressure;BME280_temperature;BME280_humidity;BME280_pressure;Samples;Min_cycle;Max_cycle;Signal;HPM_P1;HPM_P2
2023/10/03 00:00:47;;;;;;;11.23;9.83;;;16.40;76.20;;;;;;6277352;28;20378;-83
2023/10/03 00:03:52;;;;;;;10.70;9.60;;;16.40;76.40;;;;;;6288903;28;20244;-82
2023/10/03 00:06:57;;;;;;;10.73;9.63;;;16.40;76.40;;;;;;6289178;28;20279;-80
2023/10/03 00:10:00;;;;;;;11.83;10.67;;;16.40;76.40;;;;;;6287430;28;20238;-78
2023/10/03 00:13:07;;;;;;;11.63;10.00;;;16.30;76.40;;;;;;6289054;28;20244;-82
2023/10/03 00:16:12;;;;;;;10.83;9.70;;;16.30;76.50;;;;;;6280787;28;20253;-80
2023/10/03 00:19:15;;;;;;;13.00;10.57;;;16.20;76.60;;;;;;6285369;28;20892;-80
2023/10/03 00:22:19;;;;;;;11.80;9.90;;;16.20;76.60;;;;;;6289225;28;20234;-83
2023/10/03 00:25:23;;;;;;;15.87;11.27;;;16.20;76.70;;;;;;6287737;28;20249;-80
2023/10/03 00:28:27;;;;;;;12.17;10.97;;;16.10;76.80;;;;;;6280141;28;20285;-82
2023/10/03 00:31:33;;;;;;;11.90;10.70;;;16.10;76.90;;;;;;6285062;28;20763;-83
2023/10/03 00:34:40;;;;;;;15.93;11.83;;;16.10;77.00;;;;;;6285074;28;20244;-75
2023/10/03 00:37:45;;;;;;;13.00;11.60;;;16.10;77.00;;;;;;6286594;28;20233;-81
2023/10/03 00:40:50;;;;;;;13.43;11.50;;;16.10;77.10;;;;;;6281603;28;20234;-82
2023/10/03 00:43:59;;;;;;;14.37;11.83;;;16.10;77.10;;;;;;6289198;28;20241;-81
2023/10/03 00:47:06;;;;;;;12.93;11.43;;;16.00;77.20;;;;;;6282097;28;20241;-81
2023/10/03 00:50:12;;;;;;;15.80;11.87;;;16.10;77.20;;;;;;6281604;28;20241;-80
2023/10/03 00:53:16;;;;;;;13.70;12.30;;;16.00;77.40;;;;;;6290421;28;20237;-79
2023/10/03 00:56:31;;;;;;;12.33;11.10;;;16.00;77.40;;;;;;6287682;28;20721;-78
2023/10/03 00:59:34;;;;;;;12.07;10.87;;;16.00;77.40;;;;;;6279065;28;20229;-81
2023/10/03 01:02:48;;;;;;;12.83;11.53;;;16.00;77.40;;;;;;6288856;28;20617;-81
2023/10/03 01:05:52;;;;;;;14.13;12.63;;;16.00;77.50;;;;;;6289283;28;20322;-84
2023/10/03 01:08:55;;;;;;;13.53;11.70;;;16.00;77.50;;;;;;6273886;28;20233;-80
2023/10/03 01:12:01;;;;;;;12.57;11.27;;;15.90;77.60;;;;;;6298761;28;20451;-75
2023/10/03 01:15:10;;;;;;;12.90;11.60;;;15.80;77.60;;;;;;6302523;28;20232;-76
2023/10/03 01:18:20;;;;;;;12.43;11.10;;;15.80;77.60;;;;;;6320075;28;20245;-77
2023/10/03 01:21:25;;;;;;;12.43;11.13;;;15.80;77.60;;;;;;6313825;28;20241;-76
2023/10/03 01:24:30;;;;;;;12.57;11.23;;;15.80;77.70;;;;;;6315805;28;20221;-73
2023/10/03 01:27:34;;;;;;;11.60;10.40;;;15.70;77.70;;;;;;6320266;28;20217;-75
2023/10/03 01:30:37;;;;;;;12.00;10.87;;;15.60;77.80;;;;;;6321410;28;20235;-77
2023/10/03 01:33:40;;;;;;;12.33;11.03;;;15.60;77.80;;;;;;6323833;28;20244;-77
2023/10/03 01:36:46;;;;;;;11.87;10.77;;;15.60;77.90;;;;;;6317726;28;20221;-76
2023/10/03 01:39:50;;;;;;;13.00;11.70;;;15.60;78.10;;;;;;6294184;28;20217;-78
2023/10/03 01:42:54;;;;;;;14.10;12.20;;;15.60;78.20;;;;;;6318399;28;20271;-76
2023/10/03 01:45:57;;;;;;;13.23;11.20;;;15.50;78.30;;;;;;6315907;28;20437;-78
2023/10/03 01:49:00;;;;;;;12.90;11.00;;;15.50;78.30;;;;;;6320716;28;20218;-77
2023/10/03 01:52:06;;;;;;;11.90;10.70;;;15.50;78.30;;;;;;6311255;28;20217;-78
2023/10/03 01:55:12;;;;;;;12.00;10.67;;;15.50;78.20;;;;;;6317175;28;20234;-77
2023/10/03 01:58:15;;;;;;;10.93;9.90;;;15.50;78.20;;;;;;6319424;28;20218;-75
2023/10/03 02:01:18;;;;;;;13.60;11.50;;;15.40;78.20;;;;;;6310019;28;20241;-78
2023/10/03 02:04:27;;;;;;;13.33;11.40;;;15.40;78.10;;;;;;6319575;28;20225;-76
2023/10/03 02:07:31;;;;;;;11.30;10.17;;;15.40;78.20;;;;;;6314624;28;20252;-76
2023/10/03 02:10:35;;;;;;;11.37;10.13;;;15.30;78.30;;;;;;6308374;28;20225;-78
2023/10/03 02:13:40;;;;;;;12.87;10.03;;;15.30;78.30;;;;;;6319569;28;20221;-74
2023/10/03 02:16:46;;;;;;;11.27;10.17;;;15.30;78.30;;;;;;6318423;28;20252;-78
2023/10/03 02:19:49;;;;;;;10.93;9.93;;;15.30;78.40;;;;;;6312869;28;20236;-77
2023/10/03 02:22:55;;;;;;;11.43;10.37;;;15.30;78.40;;;;;;6290611;28;20615;-81
2023/10/03 02:26:10;;;;;;;11.70;10.20;;;15.20;78.40;;;;;;6296856;28;20243;-78
2023/10/03 02:29:13;;;;;;;12.17;10.93;;;15.20;78.50;;;;;;6281640;28;20233;-79
2023/10/03 02:32:16;;;;;;;10.90;9.87;;;15.20;78.40;;;;;;6289386;28;20324;-80
2023/10/03 02:35:22;;;;;;;10.97;9.87;;;15.20;78.40;;;;;;6284601;28;20237;-82
2023/10/03 02:38:29;;;;;;;11.27;10.17;;;15.10;78.40;;;;;;6277339;28;20233;-82
2023/10/03 02:41:34;;;;;;;12.80;11.50;;;15.10;78.40;;;;;;6287826;28;20226;-81
2023/10/03 02:44:37;;;;;;;12.87;11.57;;;15.00;78.40;;;;;;6282875;28;20237;-80
2023/10/03 02:47:41;;;;;;;13.13;11.40;;;15.00;78.50;;;;;;6288586;28;20241;-81
2023/10/03 02:50:46;;;;;;;13.57;10.90;;;15.00;78.50;;;;;;6283098;28;20233;-80
2023/10/03 02:53:49;;;;;;;14.50;12.23;;;15.00;78.40;;;;;;6285043;28;20744;-82
2023/10/03 02:56:55;;;;;;;11.13;10.13;;;15.00;78.40;;;;;;6274761;28;20260;-81
2023/10/03 02:59:58;;;;;;;12.77;10.83;;;15.00;78.40;;;;;;6288691;28;20245;-82
2023/10/03 03:03:06;;;;;;;12.60;11.40;;;15.00;78.40;;;;;;6287413;28;20248;-80
2023/10/03 03:06:14;;;;;;;12.67;11.37;;;14.90;78.30;;;;;;6271181;28;20234;-80
2023/10/03 03:09:23;;;;;;;14.57;12.43;;;14.90;78.30;;;;;;6271963;28;20242;-81
2023/10/03 03:12:28;;;;;;;13.23;11.20;;;14.90;78.30;;;;;;6276937;28;20882;-82
2023/10/03 03:15:32;;;;;;;14.73;11.73;;;14.90;78.20;;;;;;6280136;28;20624;-80
2023/10/03 03:18:40;;;;;;;14.40;11.30;;;14.90;78.10;;;;;;6286331;28;20217;-80
2023/10/03 03:21:45;;;;;;;14.73;11.97;;;14.90;77.90;;;;;;6291425;28;20315;-83
2023/10/03 03:24:52;;;;;;;15.60;11.43;;;14.90;77.90;;;;;;6281053;28;20248;-81
2023/10/03 03:27:57;;;;;;;13.23;11.83;;;14.80;77.80;;;;;;6283816;28;20240;-82
2023/10/03 03:31:01;;;;;;;17.33;12.30;;;14.80;77.70;;;;;;6288168;28;20304;-78
2023/10/03 03:34:06;;;;;;;12.63;10.93;;;14.80;77.60;;;;;;6274507;28;20261;-80
2023/10/03 03:37:21;;;;;;;14.37;10.90;;;14.80;77.60;;;;;;6281871;28;20226;-81
2023/10/03 03:40:31;;;;;;;16.60;11.10;;;14.80;77.60;;;;;;6289277;28;20727;-82
2023/10/03 03:43:36;;;;;;;14.53;12.23;;;14.80;77.50;;;;;;6283026;28;20245;-80
2023/10/03 03:46:40;;;;;;;15.83;11.37;;;14.80;77.50;;;;;;6291407;28;20241;-79
2023/10/03 03:49:44;;;;;;;15.93;12.20;;;14.70;77.50;;;;;;6282391;28;20692;-81
2023/10/03 03:52:48;;;;;;;15.83;11.60;;;14.70;77.50;;;;;;6285463;28;20738;-83
2023/10/03 03:55:52;;;;;;;19.33;12.33;;;14.80;77.30;;;;;;6280553;28;20259;-80
2023/10/03 03:58:56;;;;;;;15.93;11.50;;;14.80;77.10;;;;;;6285586;28;20311;-80
2023/10/03 04:02:00;;;;;;;14.77;11.03;;;14.80;77.00;;;;;;6287455;28;20798;-81
2023/10/03 04:05:08;;;;;;;15.97;12.83;;;14.80;77.00;;;;;;6287291;28;20244;-81
2023/10/03 04:08:11;;;;;;;16.23;12.83;;;14.80;77.00;;;;;;6291272;28;20230;-82
2023/10/03 04:11:20;;;;;;;15.47;11.57;;;14.80;76.90;;;;;;6288962;28;20279;-81
2023/10/03 04:14:25;;;;;;;14.43;11.60;;;14.80;76.90;;;;;;6288818;28;20326;-81
2023/10/03 04:17:28;;;;;;;13.87;11.87;;;14.90;76.80;;;;;;6282600;28;20234;-83
2023/10/03 04:20:31;;;;;;;18.70;12.37;;;14.90;76.70;;;;;;6287803;28;20236;-78
2023/10/03 04:23:34;;;;;;;20.97;13.50;;;14.90;76.60;;;;;;6288949;28;20241;-83
2023/10/03 04:26:41;;;;;;;20.50;12.87;;;14.90;76.50;;;;;;6286957;28;20237;-84
2023/10/03 04:29:47;;;;;;;20.33;13.93;;;15.00;76.20;;;;;;6285249;28;20322;-79
2023/10/03 04:32:50;;;;;;;19.87;13.57;;;15.00;76.00;;;;;;6287769;28;20233;-80
2023/10/03 04:35:54;;;;;;;19.20;13.53;;;15.20;75.30;;;;;;6283740;28;20240;-80
2023/10/03 04:38:57;;;;;;;16.93;12.60;;;15.20;75.00;;;;;;6285899;28;20234;-83
2023/10/03 04:42:00;;;;;;;17.43;12.90;;;15.30;74.70;;;;;;6281783;28;20233;-82
2023/10/03 04:45:07;;;;;;;21.27;14.60;;;15.30;74.80;;;;;;6274881;28;20847;-81
2023/10/03 04:48:12;;;;;;;21.77;14.03;;;15.30;74.60;;;;;;6282794;28;20230;-82
2023/10/03 04:51:15;;;;;;;20.93;14.23;;;15.30;74.70;;;;;;6288776;28;20362;-83
2023/10/03 04:54:19;;;;;;;17.90;13.63;;;15.30;74.50;;;;;;6290049;28;20233;-79
2023/10/03 04:57:22;;;;;;;20.33;14.00;;;15.30;74.40;;;;;;6288059;28;20237;-83
2023/10/03 05:00:27;;;;;;;22.13;12.73;;;15.40;74.30;;;;;;6283815;28;20310;-82
2023/10/03 05:03:30;;;;;;;19.90;13.50;;;15.40;74.20;;;;;;6284486;28;20244;-86
2023/10/03 05:06:35;;;;;;;19.83;14.10;;;15.40;74.20;;;;;;6282799;28;20241;-83
2023/10/03 05:09:39;;;;;;;20.73;13.73;;;15.40;73.90;;;;;;6277719;28;20240;-80
2023/10/03 05:12:45;;;;;;;19.80;13.67;;;15.40;74.00;;;;;;6281557;28;20761;-79
2023/10/03 05:15:51;;;;;;;22.23;14.47;;;15.40;74.00;;;;;;6277771;28;20627;-79
2023/10/03 05:18:55;;;;;;;21.53;13.83;;;15.50;73.80;;;;;;6283413;28;20232;-81
2023/10/03 05:21:58;;;;;;;18.77;13.53;;;15.50;73.90;;;;;;6285064;28;20240;-80
2023/10/03 05:25:02;;;;;;;17.33;12.30;;;15.60;73.70;;;;;;6286394;28;20229;-80
2023/10/03 05:28:06;;;;;;;19.10;12.97;;;15.60;73.60;;;;;;6279178;28;20241;-77
2023/10/03 05:31:15;;;;;;;18.97;12.93;;;15.60;73.70;;;;;;6283474;28;20268;-78
2023/10/03 05:34:20;;;;;;;19.83;12.83;;;15.60;73.70;;;;;;6277683;28;20322;-78
2023/10/03 05:37:23;;;;;;;19.03;12.73;;;15.70;73.20;;;;;;6285850;28;20233;-80
2023/10/03 05:40:27;;;;;;;20.97;14.00;;;15.70;73.20;;;;;;6278739;28;20363;-78
2023/10/03 05:43:30;;;;;;;18.10;12.43;;;15.80;72.90;;;;;;6272762;28;20263;-80
2023/10/03 05:46:36;;;;;;;25.80;14.00;;;15.80;73.00;;;;;;6281895;28;20674;-82
2023/10/03 05:49:40;;;;;;;20.20;14.10;;;15.80;72.60;;;;;;6262295;28;20251;-80
2023/10/03 05:52:44;;;;;;;19.30;13.17;;;15.90;72.30;;;;;;6285118;28;20284;-79
2023/10/03 05:55:47;;;;;;;20.07;13.57;;;16.00;72.00;;;;;;6274568;28;20229;-79
2023/10/03 05:58:50;;;;;;;19.70;13.40;;;16.10;71.80;;;;;;6286806;28;20322;-78
2023/10/03 06:01:55;;;;;;;21.17;13.83;;;16.10;71.60;;;;;;6285054;28;20321;-79
2023/10/03 06:04:58;;;;;;;20.13;13.57;;;16.20;71.20;;;;;;6274454;28;20298;-79
2023/10/03 06:08:02;;;;;;;19.23;13.40;;;16.40;70.70;;;;;;6284307;28;20229;-78
2023/10/03 06:11:05;;;;;;;21.63;13.13;;;16.40;70.30;;;;;;6286339;28;20669;-80
2023/10/03 06:14:08;;;;;;;20.57;14.03;;;16.50;70.10;;;;;;6282826;28;20717;-82
2023/10/03 06:17:15;;;;;;;17.27;12.70;;;16.40;70.00;;;;;;6276579;28;20323;-86
2023/10/03 06:20:19;;;;;;;21.63;13.93;;;16.50;70.00;;;;;;6284275;28;20240;-80
2023/10/03 06:23:22;;;;;;;21.80;14.70;;;16.50;69.90;;;;;;6284303;28;21915;-82
2023/10/03 06:26:25;;;;;;;20.77;13.30;;;16.60;69.90;;;;;;6267604;28;20242;-82
2023/10/03 06:29:28;;;;;;;22.17;14.47;;;16.60;69.70;;;;;;6281676;28;20233;-82
2023/10/03 06:32:34;;;;;;;19.87;14.10;;;16.60;69.80;;;;;;6274316;28;20399;-82
2023/10/03 06:35:37;;;;;;;21.20;12.93;;;16.70;69.90;;;;;;6276081;28;20266;-82
2023/10/03 06:38:41;;;;;;;18.83;13.03;;;16.70;69.80;;;;;;6283798;28;20290;-80
2023/10/03 06:41:44;;;;;;;22.83;14.03;;;16.80;69.60;;;;;;6279870;28;20237;-80
2023/10/03 06:44:47;;;;;;;21.03;13.97;;;16.80;69.60;;;;;;6274687;28;20237;-81
2023/10/03 06:47:52;;;;;;;19.27;14.03;;;16.80;69.60;;;;;;6277866;28;20335;-80
2023/10/03 06:50:56;;;;;;;22.43;14.30;;;16.80;70.00;;;;;;6280888;28;20234;-82
2023/10/03 06:53:59;;;;;;;19.87;13.77;;;16.80;69.80;;;;;;6277188;28;20237;-81
2023/10/03 06:57:03;;;;;;;22.80;14.30;;;16.90;69.70;;;;;;6290155;28;20229;-82
2023/10/03 07:00:13;;;;;;;21.97;14.57;;;17.00;69.40;;;;;;6284119;28;20229;-82
2023/10/03 07:03:17;;;;;;;22.40;14.30;;;17.00;69.70;;;;;;6289529;28;20237;-79
2023/10/03 07:06:21;;;;;;;24.60;14.93;;;17.10;69.40;;;;;;6289893;28;20229;-82
2023/10/03 07:09:24;;;;;;;20.77;13.57;;;17.20;69.40;;;;;;6288625;28;20315;-81
2023/10/03 07:12:29;;;;;;;21.07;13.93;;;17.30;69.10;;;;;;6288511;28;20256;-81
2023/10/03 07:15:33;;;;;;;23.67;13.67;;;17.40;69.00;;;;;;6269881;28;20234;-83
2023/10/03 07:18:38;;;;;;;25.20;14.50;;;17.50;68.50;;;;;;6289835;28;20236;-80
2023/10/03 07:21:41;;;;;;;24.27;14.53;;;17.60;68.70;;;;;;6279570;28;20241;-80
2023/10/03 07:24:45;;;;;;;21.27;14.80;;;17.70;68.20;;;;;;6281946;28;20240;-82
2023/10/03 07:27:49;;;;;;;30.10;14.90;;;17.80;67.90;;;;;;6282859;28;20259;-82
2023/10/03 07:30:52;;;;;;;28.47;15.33;;;17.90;67.80;;;;;;6288317;28;20268;-81
2023/10/03 07:33:57;;;;;;;24.97;14.50;;;18.00;68.00;;;;;;6285432;28;20237;-82
2023/10/03 07:37:00;;;;;;;23.53;15.03;;;18.00;67.80;;;;;;6282797;28;20233;-81
2023/10/03 07:40:06;;;;;;;27.83;15.43;;;18.10;67.70;;;;;;6282065;28;20236;-80
2023/10/03 07:43:10;;;;;;;26.00;15.73;;;18.20;67.50;;;;;;6289391;28;20229;-80
2023/10/03 07:46:13;;;;;;;28.83;16.07;;;18.40;67.30;;;;;;6276460;28;20795;-82
2023/10/03 07:49:18;;;;;;;29.97;16.47;;;18.40;66.90;;;;;;6289548;28;20233;-77
2023/10/03 07:52:22;;;;;;;24.17;15.90;;;18.60;66.90;;;;;;6286449;28;20312;-76
2023/10/03 07:55:26;;;;;;;26.77;16.07;;;18.60;66.60;;;;;;6286902;28;20336;-73
2023/10/03 07:58:32;;;;;;;27.90;16.37;;;18.80;66.60;;;;;;6290943;28;20245;-77
2023/10/03 08:01:38;;;;;;;28.07;15.83;;;18.90;66.40;;;;;;6287385;28;20248;-76
2023/10/03 08:05:01;;;;;;;29.13;16.37;;;19.10;66.20;;;;;;6284386;28;20229;-80
2023/10/03 08:08:07;;;;;;;32.00;16.80;;;19.20;66.10;;;;;;6284405;28;20660;-80
2023/10/03 08:11:13;;;;;;;26.10;15.37;;;19.40;65.40;;;;;;6284301;28;20241;-79
2023/10/03 08:14:17;;;;;;;26.20;16.13;;;19.50;65.50;;;;;;6274391;28;20619;-78
2023/10/03 08:17:26;;;;;;;30.03;16.40;;;19.80;65.10;;;;;;6284485;28;20233;-80
2023/10/03 08:20:30;;;;;;;28.53;16.00;;;20.00;64.50;;;;;;6282859;28;20863;-79
2023/10/03 08:23:39;;;;;;;28.30;17.03;;;20.30;63.60;;;;;;6280604;28;20311;-81
2023/10/03 08:26:46;;;;;;;31.80;17.43;;;20.50;63.30;;;;;;6278178;28;20242;-77
2023/10/03 08:29:50;;;;;;;27.83;16.77;;;20.70;62.70;;;;;;6285168;28;20237;-78
2023/10/03 08:32:56;;;;;;;26.90;17.20;;;20.80;62.50;;;;;;6280890;28;20237;-79
2023/10/03 08:36:01;;;;;;;26.27;16.07;;;21.00;61.80;;;;;;6287799;28;20244;-81
2023/10/03 08:39:10;;;;;;;26.93;16.17;;;21.10;62.00;;;;;;6281246;28;20827;-79
2023/10/03 08:42:18;;;;;;;26.33;16.87;;;21.30;61.50;;;;;;6287773;28;20232;-78
2023/10/03 08:45:25;;;;;;;28.83;16.70;;;21.30;61.40;;;;;;6276350;28;20298;-79
2023/10/03 08:48:32;;;;;;;28.73;16.87;;;21.50;61.30;;;;;;6293725;28;20966;-79
2023/10/03 08:51:40;;;;;;;23.63;16.13;;;21.80;60.30;;;;;;6288073;28;20916;-80
2023/10/03 08:54:44;;;;;;;25.67;15.87;;;21.90;60.20;;;;;;6282869;28;20241;-81
2023/10/03 08:57:48;;;;;;;27.17;16.50;;;21.90;60.50;;;;;;6290614;28;20622;-79
2023/10/03 09:00:58;;;;;;;26.90;16.83;;;21.90;60.30;;;;;;6270829;28;20230;-81
2023/10/03 09:04:05;;;;;;;25.03;17.40;;;21.90;59.70;;;;;;6281012;28;20237;-79
2023/10/03 09:07:10;;;;;;;25.30;17.23;;;21.90;59.80;;;;;;6285803;28;20233;-79
2023/10/03 09:10:22;;;;;;;24.43;16.33;;;21.90;59.50;;;;;;6272530;28;20320;-81
2023/10/03 09:13:29;;;;;;;27.17;16.20;;;21.90;59.80;;;;;;6286957;28;20745;-80
2023/10/03 09:16:38;;;;;;;24.80;15.80;;;21.90;59.70;;;;;;6280807;28;20755;-79
2023/10/03 09:19:44;;;;;;;25.33;15.40;;;21.90;60.30;;;;;;6281878;28;20242;-82
2023/10/03 09:22:51;;;;;;;24.63;16.10;;;21.90;59.60;;;;;;6279012;28;20708;-77
2023/10/03 09:25:57;;;;;;;27.50;16.43;;;21.90;59.80;;;;;;6270895;28;20233;-79
2023/10/03 09:29:07;;;;;;;27.37;15.33;;;22.00;59.30;;;;;;6273257;28;20241;-80
2023/10/03 09:32:14;;;;;;;24.03;15.40;;;22.00;59.50;;;;;;6279077;28;20636;-82
2023/10/03 09:35:17;;;;;;;23.57;15.63;;;22.00;59.20;;;;;;6279216;28;20256;-82
2023/10/03 09:38:42;;;;;;;23.77;15.00;;;22.00;59.40;;;;;;6276075;28;20226;-80
2023/10/03 09:41:46;;;;;;;29.33;17.57;;;22.10;59.70;;;;;;6279498;28;20237;-80
2023/10/03 09:44:51;;;;;;;26.50;16.10;;;22.20;59.70;;;;;;6286268;28;20616;-81
2023/10/03 09:47:58;;;;;;;24.57;16.00;;;22.20;59.30;;;;;;6263064;28;20230;-80
2023/10/03 09:51:05;;;;;;;23.13;16.00;;;22.40;59.40;;;;;;6286113;28;20656;-80
2023/10/03 09:54:12;;;;;;;22.30;14.67;;;22.50;59.60;;;;;;6283790;28;20277;-82
2023/10/03 09:57:18;;;;;;;24.47;16.53;;;22.50;59.90;;;;;;6279225;28;20233;-80
2023/10/03 10:00:38;;;;;;;22.10;15.00;;;22.50;59.20;;;;;;6287748;28;20314;-81
2023/10/03 10:03:46;;;;;;;23.27;15.00;;;22.50;59.30;;;;;;6279576;28;20320;-80
2023/10/03 10:06:52;;;;;;;23.60;16.13;;;22.50;59.40;;;;;;6290945;28;20709;-81
2023/10/03 10:10:07;;;;;;;23.97;15.17;;;22.50;59.40;;;;;;6289532;28;20273;-79
2023/10/03 10:13:20;;;;;;;24.43;15.57;;;22.70;59.30;;;;;;6276404;28;20638;-78
2023/10/03 10:16:28;;;;;;;25.87;16.83;;;22.70;59.50;;;;;;6277755;28;20230;-79
2023/10/03 10:20:05;;;;;;;23.47;15.03;;;22.80;59.70;;;;;;6277994;28;20221;-81
2023/10/03 10:23:17;;;;;;;24.20;15.57;;;22.90;59.50;;;;;;6278488;28;20612;-80
2023/10/03 10:26:30;;;;;;;25.13;16.47;;;23.10;59.10;;;;;;6278556;28;20253;-81
2023/10/03 10:29:36;;;;;;;26.50;16.43;;;23.40;58.30;;;;;;6280193;28;20245;-81
2023/10/03 10:32:49;;;;;;;17.80;14.83;;;23.60;57.90;;;;;;6283486;28;20261;-81
2023/10/03 10:35:54;;;;;;;23.40;15.77;;;23.60;58.20;;;;;;6275174;28;20324;-80
2023/10/03 10:38:59;;;;;;;24.57;15.17;;;23.70;57.70;;;;;;6275053;28;20241;-83
2023/10/03 10:42:16;;;;;;;23.60;15.80;;;23.70;57.10;;;;;;6273240;28;20233;-82
2023/10/03 10:45:20;;;;;;;23.53;14.60;;;24.00;57.30;;;;;;6275512;28;20295;-83
2023/10/03 10:48:39;;;;;;;21.40;14.63;;;24.00;56.60;;;;;;6285514;28;20229;-81
2023/10/03 10:51:55;;;;;;;24.77;14.50;;;24.00;56.40;;;;;;6279239;28;20489;-80
2023/10/03 10:55:01;;;;;;;24.77;14.43;;;24.10;56.20;;;;;;6278274;28;20237;-81
2023/10/03 10:58:08;;;;;;;22.47;13.57;;;24.10;56.10;;;;;;6281266;28;20233;-80
2023/10/03 11:01:13;;;;;;;18.63;13.80;;;24.20;55.70;;;;;;6275147;28;20615;-80
2023/10/03 11:04:25;;;;;;;20.23;13.60;;;24.20;55.90;;;;;;6287936;28;20232;-81
2023/10/03 11:07:31;;;;;;;19.20;13.53;;;24.30;55.30;;;;;;6280502;28;20298;-81
2023/10/03 11:10:38;;;;;;;19.70;12.87;;;24.40;56.00;;;;;;6278785;28;20237;-83
2023/10/03 11:13:51;;;;;;;20.17;13.53;;;24.40;55.70;;;;;;6278381;28;20328;-81
2023/10/03 11:16:55;;;;;;;19.80;12.90;;;24.40;55.70;;;;;;6277285;28;20293;-80
2023/10/03 11:20:00;;;;;;;24.13;13.00;;;24.40;54.90;;;;;;6281236;28;20244;-81
2023/10/03 11:23:03;;;;;;;18.10;12.50;;;24.20;55.60;;;;;;6279759;28;20789;-81
2023/10/03 11:26:06;;;;;;;17.80;12.37;;;24.30;55.30;;;;;;6282502;28;20290;-79
2023/10/03 11:29:11;;;;;;;16.33;12.73;;;24.40;54.80;;;;;;6282658;28;20245;-78
2023/10/03 11:32:19;;;;;;;24.13;12.77;;;24.40;55.10;;;;;;6284103;28;20328;-79
2023/10/03 11:35:23;;;;;;;15.27;11.97;;;24.40;55.20;;;;;;6273260;28;20229;-78
2023/10/03 11:38:26;;;;;;;15.33;10.80;;;24.40;54.60;;;;;;6282318;28;20316;-79
2023/10/03 11:41:33;;;;;;;18.30;12.67;;;24.00;54.80;;;;;;6282288;28;20316;-79
2023/10/03 11:44:38;;;;;;;18.80;12.53;;;24.00;55.00;;;;;;6279091;28;20748;-82
2023/10/03 11:47:41;;;;;;;18.00;11.80;;;23.90;55.30;;;;;;6281018;28;20233;-82
2023/10/03 11:50:46;;;;;;;20.17;12.37;;;23.70;55.30;;;;;;6283469;28;20251;-80
2023/10/03 11:53:49;;;;;;;17.07;11.60;;;23.60;55.90;;;;;;6287628;28;20251;-81
2023/10/03 11:56:53;;;;;;;18.27;12.00;;;23.70;56.00;;;;;;6271527;28;20232;-81
2023/10/03 12:00:01;;;;;;;15.57;10.93;;;23.60;55.80;;;;;;6283504;28;20229;-81
2023/10/03 12:03:05;;;;;;;15.30;12.10;;;23.60;56.00;;;;;;6291133;28;20232;-80
2023/10/03 12:06:09;;;;;;;17.27;12.23;;;23.50;56.40;;;;;;6283780;28;20238;-80
2023/10/03 12:09:13;;;;;;;15.53;11.40;;;23.50;56.30;;;;;;6283229;28;20252;-79
2023/10/03 12:12:16;;;;;;;15.30;11.13;;;23.40;56.50;;;;;;6288124;28;20317;-78
2023/10/03 12:15:23;;;;;;;19.30;11.80;;;23.30;56.90;;;;;;6282494;28;20248;-79
2023/10/03 12:18:27;;;;;;;14.67;11.53;;;23.30;57.20;;;;;;6274513;28;20339;-78
2023/10/03 12:21:31;;;;;;;19.20;11.93;;;23.30;56.90;;;;;;6288241;28;20237;-84
2023/10/03 12:24:34;;;;;;;17.43;12.37;;;23.30;57.10;;;;;;6288254;28;20245;-86
2023/10/03 12:27:38;;;;;;;14.17;10.57;;;23.30;57.30;;;;;;6283407;28;20241;-81
2023/10/03 12:30:43;;;;;;;15.37;11.10;;;23.20;57.50;;;;;;6289761;28;20245;-79
2023/10/03 12:33:46;;;;;;;19.47;11.33;;;23.20;57.40;;;;;;6288855;28;20725;-81
2023/10/03 12:36:49;;;;;;;17.47;11.03;;;23.30;57.40;;;;;;6279740;28;20259;-81
2023/10/03 12:39:53;;;;;;;17.83;10.13;;;23.20;57.20;;;;;;6284489;28;20252;-80
2023/10/03 12:42:55;;;;;;;13.00;10.67;;;23.20;57.50;;;;;;6285390;28;20244;-79
2023/10/03 12:46:00;;;;;;;12.90;9.83;;;23.20;57.40;;;;;;6288890;28;20229;-80
2023/10/03 12:49:06;;;;;;;13.57;10.13;;;23.20;57.30;;;;;;6278825;28;20240;-80
2023/10/03 12:52:10;;;;;;;15.03;10.17;;;23.10;57.50;;;;;;6274360;28;20615;-76
2023/10/03 12:55:13;;;;;;;15.47;9.97;;;23.00;57.80;;;;;;6281298;28;20242;-79
2023/10/03 12:58:19;;;;;;;13.37;10.23;;;23.00;58.10;;;;;;6288658;28;20241;-79
2023/10/03 13:01:23;;;;;;;13.57;10.97;;;22.90;59.10;;;;;;6290519;28;20245;-81
2023/10/03 13:04:27;;;;;;;14.00;10.80;;;22.60;59.80;;;;;;6290220;28;20229;-80
2023/10/03 13:07:35;;;;;;;12.07;9.73;;;22.60;59.90;;;;;;6284082;28;20840;-79
2023/10/03 13:10:41;;;;;;;19.17;10.27;;;22.50;60.30;;;;;;6289218;28;20236;-78
2023/10/03 13:13:47;;;;;;;15.53;10.03;;;22.50;60.00;;;;;;6282262;28;20382;-78
2023/10/03 13:16:58;;;;;;;15.03;10.60;;;22.30;60.00;;;;;;6288381;28;20261;-77
2023/10/03 13:20:07;;;;;;;13.87;9.73;;;22.40;60.10;;;;;;6286439;28;20237;-79
2023/10/03 13:23:10;;;;;;;14.03;9.83;;;22.30;59.70;;;;;;6287449;28;20739;-80
2023/10/03 13:26:13;;;;;;;13.13;9.63;;;22.40;60.20;;;;;;6285912;28;20308;-79
2023/10/03 13:29:17;;;;;;;11.40;9.60;;;22.50;60.10;;;;;;6287196;28;20995;-78
2023/10/03 13:32:21;;;;;;;15.13;9.97;;;22.50;60.40;;;;;;6287255;28;20322;-79
2023/10/03 13:35:28;;;;;;;13.17;10.00;;;22.50;60.30;;;;;;6275054;28;20242;-79
2023/10/03 13:38:31;;;;;;;14.77;11.13;;;22.60;59.90;;;;;;6282927;28;20754;-80
2023/10/03 13:41:35;;;;;;;16.30;9.80;;;22.60;59.90;;;;;;6286913;28;20233;-78
2023/10/03 13:44:38;;;;;;;14.03;9.37;;;22.70;59.90;;;;;;6271057;28;20255;-80
2023/10/03 13:47:45;;;;;;;15.13;8.83;;;22.70;59.50;;;;;;6287484;28;20257;-79
2023/10/03 13:50:50;;;;;;;11.03;8.67;;;22.70;59.50;;;;;;6288072;28;20241;-80
2023/10/03 13:53:53;;;;;;;10.90;8.23;;;22.70;59.60;;;;;;6285190;28;21019;-79
2023/10/03 13:56:56;;;;;;;12.37;8.90;;;22.50;60.30;;;;;;6288297;28;20233;-79
2023/10/03 14:00:00;;;;;;;12.83;8.67;;;22.50;60.80;;;;;;6285280;28;20929;-79
2023/10/03 14:03:17;;;;;;;11.97;8.63;;;22.40;61.00;;;;;;6284436;28;20696;-79
2023/10/03 14:06:22;;;;;;;13.60;9.70;;;22.30;61.00;;;;;;6276902;28;20238;-78
2023/10/03 14:09:27;;;;;;;10.87;8.10;;;22.30;61.10;;;;;;6285828;28;20865;-79
2023/10/03 14:12:30;;;;;;;11.97;8.13;;;22.20;61.30;;;;;;6289061;28;20268;-81
2023/10/03 14:15:38;;;;;;;9.53;8.37;;;22.10;61.10;;;;;;6279598;28;20245;-80
2023/10/03 14:18:42;;;;;;;9.90;7.70;;;22.10;61.10;;;;;;6278776;28;20225;-82
2023/10/03 14:21:46;;;;;;;13.83;8.77;;;22.10;60.90;;;;;;6281992;28;20240;-79
2023/10/03 14:24:50;;;;;;;10.13;8.00;;;22.10;61.20;;;;;;6279493;28;20238;-78
2023/10/03 14:27:54;;;;;;;11.00;8.27;;;22.10;61.00;;;;;;6285647;28;20752;-79
2023/10/03 14:30:57;;;;;;;10.50;7.50;;;22.10;61.20;;;;;;6278698;28;20237;-79
2023/10/03 14:34:01;;;;;;;9.80;8.80;;;22.00;61.30;;;;;;6284180;28;20233;-80
2023/10/03 14:37:05;;;;;;;13.83;7.83;;;22.10;61.40;;;;;;6280220;28;20244;-78
2023/10/03 14:40:15;;;;;;;10.10;8.30;;;22.00;61.50;;;;;;6287165;28;20696;-78
2023/10/03 14:43:19;;;;;;;16.97;9.13;;;22.00;61.40;;;;;;6271622;28;20242;-76
2023/10/03 14:46:23;;;;;;;9.73;7.73;;;22.00;61.60;;;;;;6284709;28;20338;-77
2023/10/03 14:49:29;;;;;;;9.37;8.27;;;22.00;61.60;;;;;;6272895;28;20258;-79
2023/10/03 14:52:32;;;;;;;10.83;8.13;;;22.00;61.20;;;;;;6270318;28;20810;-78
2023/10/03 14:55:35;;;;;;;7.37;6.73;;;22.00;61.30;;;;;;6284773;28;20320;-76
2023/10/03 14:58:38;;;;;;;8.43;7.53;;;21.90;61.20;;;;;;6288262;28;20246;-80
2023/10/03 15:01:42;;;;;;;12.63;7.87;;;22.00;61.00;;;;;;6270510;28;20327;-79
2023/10/03 15:04:46;;;;;;;8.60;7.63;;;22.00;60.80;;;;;;6275935;28;20233;-81
2023/10/03 15:07:49;;;;;;;8.03;7.23;;;21.90;61.10;;;;;;6283434;28;20229;-81
2023/10/03 15:11:01;;;;;;;7.50;6.40;;;21.90;60.80;;;;;;6278933;28;20279;-81
2023/10/03 15:14:04;;;;;;;7.67;7.00;;;21.90;60.80;;;;;;6265934;28;20371;-79
2023/10/03 15:17:10;;;;;;;10.40;6.87;;;21.90;60.50;;;;;;6276751;28;20324;-79
2023/10/03 15:20:16;;;;;;;7.33;6.73;;;21.90;60.70;;;;;;6275718;28;20236;-80
2023/10/03 15:23:22;;;;;;;7.13;5.97;;;21.90;60.50;;;;;;6279698;28;20912;-82
2023/10/03 15:26:25;;;;;;;7.00;6.20;;;21.90;60.80;;;;;;6284273;28;20233;-79
2023/10/03 15:29:28;;;;;;;7.07;6.40;;;21.90;60.70;;;;;;6281130;28;20379;-79
2023/10/03 15:32:31;;;;;;;8.10;6.23;;;21.90;60.50;;;;;;6287762;28;20233;-80
2023/10/03 15:35:36;;;;;;;7.07;6.43;;;21.80;60.50;;;;;;6278798;28;20249;-79
2023/10/03 15:38:40;;;;;;;8.13;6.93;;;21.80;61.00;;;;;;6282298;28;20234;-79
2023/10/03 15:41:43;;;;;;;8.17;6.30;;;21.80;60.70;;;;;;6289628;28;20248;-80
2023/10/03 15:44:47;;;;;;;6.33;5.77;;;21.70;61.10;;;;;;6286644;28;20287;-79